Time;durP1;ratioP1;P1;durP2;ratioP2;P2;SDS_P1;SDS_P2;PMS_P1;PMS_P2;Temp;Humidity;BMP_temperature;BMP_pressure;BME280_temperature;BME280_humidity;BME280_pressure;Samples;Min_cycle;Max_cycle;Signal;HPM_P1;HPM_P2
2021/05/23 00:00:40;;;;;;;6.82;3.42;;;;;;;;;;1484818;40;20035;-64
2021/05/23 00:01:40;;;;;;;9.40;3.15;;;;;;;;;;1484346;40;20281;-64
2021/05/23 00:02:42;;;;;;;6.45;3.13;;;;;;;;;;1484303;40;20029;-64
2021/05/23 00:03:43;;;;;;;4.78;2.78;;;;;;;;;;1484831;40;20024;-64
2021/05/23 00:04:44;;;;;;;6.82;3.15;;;;;;;;;;1484953;40;20029;-64
2021/05/23 00:05:47;;;;;;;4.32;2.83;;;;;;;;;;1484872;40;20281;-64
2021/05/23 00:06:48;;;;;;;4.75;2.90;;;;;;;;;;1485021;40;20033;-64
2021/05/23 00:07:53;;;;;;;4.13;2.97;;;;;;;;;;1484845;40;20033;-64
2021/05/23 00:08:54;;;;;;;5.85;3.28;;;;;;;;;;1484999;40;20060;-65
2021/05/23 00:09:55;;;;;;;4.47;3.15;;;;;;;;;;1484784;40;20402;-64
2021/05/23 00:10:59;;;;;;;5.50;3.30;;;;;;;;;;1485021;40;20028;-64
2021/05/23 00:11:59;;;;;;;4.50;2.95;;;;;;;;;;1485017;40;20033;-64
2021/05/23 00:13:03;;;;;;;5.10;3.25;;;;;;;;;;1484833;40;20040;-65
2021/05/23 00:14:04;;;;;;;7.82;3.55;;;;;;;;;;1485014;40;20035;-64
2021/05/23 00:15:08;;;;;;;5.45;3.88;;;;;;;;;;1485004;40;20383;-64
2021/05/23 00:16:12;;;;;;;5.75;3.63;;;;;;;;;;1485029;40;20025;-64
2021/05/23 00:17:13;;;;;;;6.55;4.10;;;;;;;;;;1485024;40;20037;-64
2021/05/23 00:18:15;;;;;;;6.47;4.40;;;;;;;;;;1484958;40;20025;-64
2021/05/23 00:19:16;;;;;;;6.88;3.97;;;;;;;;;;1484869;40;20295;-64
2021/05/23 00:20:18;;;;;;;5.13;4.20;;;;;;;;;;1484749;40;20043;-64
2021/05/23 00:21:22;;;;;;;8.35;3.95;;;;;;;;;;1484744;40;20024;-64
2021/05/23 00:22:24;;;;;;;5.70;3.83;;;;;;;;;;1484803;40;20029;-64
2021/05/23 00:23:25;;;;;;;5.97;4.32;;;;;;;;;;1484920;40;20040;-64
2021/05/23 00:24:27;;;;;;;6.63;4.28;;;;;;;;;;1484755;40;20383;-64
2021/05/23 00:25:29;;;;;;;7.07;4.50;;;;;;;;;;1484886;40;20049;-64
2021/05/23 00:26:35;;;;;;;7.63;4.60;;;;;;;;;;1484810;40;20316;-64
2021/05/23 00:27:36;;;;;;;8.65;4.75;;;;;;;;;;1484870;40;20029;-64
2021/05/23 00:28:37;;;;;;;7.00;4.70;;;;;;;;;;1484777;40;20036;-64
2021/05/23 00:29:39;;;;;;;7.38;5.03;;;;;;;;;;1484810;40;20110;-64
2021/05/23 00:30:40;;;;;;;7.32;4.63;;;;;;;;;;1484939;40;20031;-64
2021/05/23 00:31:41;;;;;;;7.22;4.63;;;;;;;;;;1484843;40;20354;-65
2021/05/23 00:32:43;;;;;;;8.65;4.85;;;;;;;;;;1484739;40;20036;-64
2021/05/23 00:33:44;;;;;;;5.85;4.13;;;;;;;;;;1484765;40;20041;-65
2021/05/23 00:34:45;;;;;;;7.47;4.72;;;;;;;;;;1484765;40;20056;-64
2021/05/23 00:35:47;;;;;;;6.32;4.07;;;;;;;;;;1485057;40;20079;-64
2021/05/23 00:36:48;;;;;;;9.55;4.47;;;;;;;;;;1484714;40;20398;-64
2021/05/23 00:37:50;;;;;;;6.75;3.60;;;;;;;;;;1484706;40;20029;-65
2021/05/23 00:38:51;;;;;;;7.25;3.85;;;;;;;;;;1484733;40;20381;-64
2021/05/23 00:39:53;;;;;;;7.00;3.85;;;;;;;;;;1484906;40;20033;-64
2021/05/23 00:40:54;;;;;;;6.07;3.55;;;;;;;;;;1484995;40;20114;-64
2021/05/23 00:41:55;;;;;;;5.68;3.78;;;;;;;;;;1484773;40;20041;-64
2021/05/23 00:42:56;;;;;;;4.93;3.08;;;;;;;;;;1484758;40;20028;-64
2021/05/23 00:43:57;;;;;;;7.07;3.20;;;;;;;;;;1484742;40;20033;-64
2021/05/23 00:44:59;;;;;;;7.00;3.15;;;;;;;;;;1484837;40;20031;-64
2021/05/23 00:46:00;;;;;;;4.03;2.90;;;;;;;;;;1484784;40;20024;-64
2021/05/23 00:47:01;;;;;;;6.38;2.90;;;;;;;;;;1485028;40;20072;-64
2021/05/23 00:48:03;;;;;;;6.13;3.33;;;;;;;;;;1484918;40;20035;-64
2021/05/23 00:49:05;;;;;;;4.60;3.08;;;;;;;;;;1484812;40;20095;-64
2021/05/23 00:50:07;;;;;;;5.10;3.15;;;;;;;;;;1484691;40;20495;-65
2021/05/23 00:51:09;;;;;;;4.35;2.47;;;;;;;;;;1484976;40;20036;-64
2021/05/23 00:52:10;;;;;;;4.70;2.63;;;;;;;;;;1484992;40;20029;-64
2021/05/23 00:53:13;;;;;;;4.82;2.83;;;;;;;;;;1484990;40;20025;-64
2021/05/23 00:54:14;;;;;;;3.33;2.65;;;;;;;;;;1484723;40;20033;-64
2021/05/23 00:55:16;;;;;;;4.43;2.70;;;;;;;;;;1484945;40;20032;-64
2021/05/23 00:56:18;;;;;;;6.22;3.08;;;;;;;;;;1484825;40;20090;-64
2021/05/23 00:57:20;;;;;;;5.32;2.80;;;;;;;;;;1484761;40;20016;-64
2021/05/23 00:58:21;;;;;;;4.45;2.97;;;;;;;;;;1484687;40;20040;-65
2021/05/23 00:59:22;;;;;;;6.22;2.70;;;;;;;;;;1484747;40;20288;-65
2021/05/23 01:01:06;;;;;;;3.30;2.38;;;;;;;;;;1484866;40;20021;-64
2021/05/23 01:02:47;;;;;;;4.32;2.20;;;;;;;;;;1484733;40;20300;-64
2021/05/23 01:03:53;;;;;;;5.20;2.10;;;;;;;;;;1484910;40;20069;-64
2021/05/23 01:04:54;;;;;;;4.88;2.28;;;;;;;;;;1484860;40;20044;-65
2021/05/23 01:05:56;;;;;;;5.07;2.15;;;;;;;;;;1484679;40;20501;-65
2021/05/23 01:06:58;;;;;;;4.75;2.67;;;;;;;;;;1484870;40;20033;-64
2021/05/23 01:07:59;;;;;;;3.78;2.15;;;;;;;;;;1484695;40;20129;-65
2021/05/23 01:09:02;;;;;;;4.28;2.38;;;;;;;;;;1484690;40;20110;-64
2021/05/23 01:10:09;;;;;;;5.40;2.60;;;;;;;;;;1484817;40;20047;-64
2021/05/23 01:12:00;;;;;;;4.72;2.50;;;;;;;;;;1484815;40;20299;-64
2021/05/23 01:13:52;;;;;;;4.00;2.45;;;;;;;;;;1484625;40;20032;-64
2021/05/23 01:14:56;;;;;;;3.90;2.25;;;;;;;;;;1484654;40;20029;-64
2021/05/23 01:15:58;;;;;;;4.78;3.03;;;;;;;;;;1484804;40;20138;-64
2021/05/23 01:16:59;;;;;;;5.47;2.50;;;;;;;;;;1484864;40;20028;-64
2021/05/23 01:18:02;;;;;;;5.70;2.72;;;;;;;;;;1484853;40;20114;-64
2021/05/23 01:19:07;;;;;;;4.10;2.75;;;;;;;;;;1484649;40;20035;-64
2021/05/23 01:20:33;;;;;;;5.43;2.15;;;;;;;;;;1484836;40;20044;-64
2021/05/23 01:21:39;;;;;;;5.32;2.33;;;;;;;;;;1484681;40;20032;-64
2021/05/23 01:22:42;;;;;;;4.93;2.45;;;;;;;;;;1484928;40;20033;-65
2021/05/23 01:23:45;;;;;;;5.38;2.50;;;;;;;;;;1484593;40;20110;-64
2021/05/23 01:24:57;;;;;;;4.82;2.28;;;;;;;;;;1484828;40;20040;-64
2021/05/23 01:26:06;;;;;;;5.50;2.28;;;;;;;;;;1484764;40;20392;-64
2021/05/23 01:27:08;;;;;;;5.75;2.33;;;;;;;;;;1484830;40;20024;-64
2021/05/23 01:28:09;;;;;;;5.40;2.42;;;;;;;;;;1484785;40;20033;-64
2021/05/23 01:29:11;;;;;;;5.53;2.30;;;;;;;;;;1484864;40;20032;-64
2021/05/23 01:30:16;;;;;;;4.82;2.17;;;;;;;;;;1484634;40;20067;-65
2021/05/23 01:31:21;;;;;;;5.85;2.40;;;;;;;;;;1484641;40;20033;-64
2021/05/23 01:32:22;;;;;;;4.00;2.10;;;;;;;;;;1484607;40;20039;-64
2021/05/23 01:33:23;;;;;;;4.85;2.47;;;;;;;;;;1484633;40;20033;-65
2021/05/23 01:34:25;;;;;;;4.72;2.65;;;;;;;;;;1484650;40;20036;-64
2021/05/23 01:35:33;;;;;;;4.18;2.10;;;;;;;;;;1484536;40;20024;-64
2021/05/23 01:36:38;;;;;;;6.00;2.10;;;;;;;;;;1484583;40;20114;-64
2021/05/23 01:37:40;;;;;;;3.67;2.00;;;;;;;;;;1484840;40;20033;-64
2021/05/23 01:38:41;;;;;;;5.70;2.67;;;;;;;;;;1484594;40;20029;-64
2021/05/23 01:39:43;;;;;;;4.75;2.53;;;;;;;;;;1484607;40;20374;-65
2021/05/23 01:40:46;;;;;;;4.32;2.30;;;;;;;;;;1484624;40;20035;-64
2021/05/23 01:41:48;;;;;;;7.25;2.58;;;;;;;;;;1484817;40;20025;-64
2021/05/23 01:42:50;;;;;;;3.73;2.13;;;;;;;;;;1484559;40;20281;-64
2021/05/23 01:43:51;;;;;;;4.93;2.22;;;;;;;;;;1484759;40;20024;-64
2021/05/23 01:44:53;;;;;;;5.65;1.98;;;;;;;;;;1484566;40;20312;-64
2021/05/23 01:45:55;;;;;;;4.00;2.13;;;;;;;;;;1484593;40;20370;-64
2021/05/23 01:46:56;;;;;;;3.55;2.00;;;;;;;;;;1484624;40;20025;-64
2021/05/23 01:47:58;;;;;;;3.97;2.35;;;;;;;;;;1484613;40;20392;-64
2021/05/23 01:49:00;;;;;;;4.93;2.00;;;;;;;;;;1484764;40;20032;-64
2021/05/23 01:50:01;;;;;;;5.22;2.50;;;;;;;;;;1484754;40;20151;-64
2021/05/23 01:51:08;;;;;;;4.50;2.30;;;;;;;;;;1484686;40;20131;-64
2021/05/23 01:52:08;;;;;;;3.78;1.90;;;;;;;;;;1484754;40;20025;-64
2021/05/23 01:53:11;;;;;;;3.65;2.28;;;;;;;;;;1484776;40;20033;-64
2021/05/23 01:54:12;;;;;;;3.45;2.10;;;;;;;;;;1484608;40;20407;-64
2021/05/23 01:55:22;;;;;;;5.47;2.00;;;;;;;;;;1484631;40;20040;-64
2021/05/23 01:56:24;;;;;;;3.30;2.05;;;;;;;;;;1484774;40;20036;-65
2021/05/23 01:57:26;;;;;;;4.28;2.42;;;;;;;;;;1484568;40;20405;-64
2021/05/23 01:58:27;;;;;;;3.67;1.90;;;;;;;;;;1484578;40;20392;-64
2021/05/23 01:59:28;;;;;;;4.00;2.10;;;;;;;;;;1484445;40;20269;-65
2021/05/23 02:00:32;;;;;;;3.17;2.30;;;;;;;;;;1484538;40;20091;-64
2021/05/23 02:01:41;;;;;;;6.40;2.65;;;;;;;;;;1484554;40;20412;-64
2021/05/23 02:02:42;;;;;;;5.00;2.40;;;;;;;;;;1484733;40;20072;-64
2021/05/23 02:03:44;;;;;;;3.35;1.92;;;;;;;;;;1484500;40;20029;-64
2021/05/23 02:04:45;;;;;;;7.05;2.30;;;;;;;;;;1484511;40;20489;-64
2021/05/23 02:05:49;;;;;;;3.88;2.08;;;;;;;;;;1484519;40;20399;-64
2021/05/23 02:06:50;;;;;;;4.13;2.10;;;;;;;;;;1484779;40;20025;-64
2021/05/23 02:07:53;;;;;;;3.92;2.13;;;;;;;;;;1484736;40;20110;-64
2021/05/23 02:08:54;;;;;;;3.95;1.90;;;;;;;;;;1484699;40;20024;-64
2021/05/23 02:09:56;;;;;;;3.70;2.33;;;;;;;;;;1484481;40;20363;-64
2021/05/23 02:10:59;;;;;;;2.63;1.80;;;;;;;;;;1484184;40;20029;-64
2021/05/23 02:12:02;;;;;;;4.43;2.40;;;;;;;;;;1484340;40;20032;-64
2021/05/23 02:13:05;;;;;;;4.57;2.25;;;;;;;;;;1484527;40;20041;-64
2021/05/23 02:14:07;;;;;;;3.95;2.25;;;;;;;;;;1484504;40;20070;-64
2021/05/23 02:15:10;;;;;;;4.15;1.90;;;;;;;;;;1484198;40;20040;-64
2021/05/23 02:16:10;;;;;;;4.10;2.40;;;;;;;;;;1484515;40;20033;-64
2021/05/23 02:17:12;;;;;;;3.97;2.10;;;;;;;;;;1484528;40;20041;-64
2021/05/23 02:18:12;;;;;;;3.22;1.90;;;;;;;;;;1484706;40;20041;-64
2021/05/23 02:19:14;;;;;;;3.67;1.77;;;;;;;;;;1484656;40;20403;-64
2021/05/23 02:20:23;;;;;;;4.57;2.10;;;;;;;;;;1484489;40;20284;-64
2021/05/23 02:21:23;;;;;;;4.93;1.95;;;;;;;;;;1484548;40;20114;-64
2021/05/23 02:22:25;;;;;;;4.55;1.83;;;;;;;;;;1484536;40;20480;-64
2021/05/23 02:23:26;;;;;;;4.65;1.80;;;;;;;;;;1484436;40;20025;-64
2021/05/23 02:24:27;;;;;;;4.07;2.13;;;;;;;;;;1484671;40;20383;-64
2021/05/23 02:25:30;;;;;;;5.15;2.17;;;;;;;;;;1484545;40;20374;-64
2021/05/23 02:26:32;;;;;;;4.15;1.83;;;;;;;;;;1484643;40;20029;-64
2021/05/23 02:27:37;;;;;;;4.50;2.30;;;;;;;;;;1484578;40;20028;-64
2021/05/23 02:28:38;;;;;;;3.92;2.13;;;;;;;;;;1484508;40;20403;-64
2021/05/23 02:29:39;;;;;;;4.63;2.22;;;;;;;;;;1484664;40;20044;-65
2021/05/23 02:30:42;;;;;;;5.07;2.20;;;;;;;;;;1484535;40;20028;-64
2021/05/23 02:31:43;;;;;;;3.90;1.92;;;;;;;;;;1517286;22;20037;-62
2021/05/23 02:32:45;;;;;;;4.57;2.22;;;;;;;;;;1480549;40;20029;-62
2021/05/23 02:33:46;;;;;;;5.20;2.28;;;;;;;;;;1480505;40;20037;-62
2021/05/23 02:34:49;;;;;;;5.05;2.50;;;;;;;;;;1480535;40;20037;-63
2021/05/23 02:35:53;;;;;;;4.22;2.17;;;;;;;;;;1480499;40;20033;-62
2021/05/23 02:36:57;;;;;;;4.10;1.88;;;;;;;;;;1480551;40;20033;-63
2021/05/23 02:37:59;;;;;;;5.15;2.10;;;;;;;;;;1480511;40;20113;-62
2021/05/23 02:39:03;;;;;;;4.82;2.33;;;;;;;;;;1480320;40;20325;-62
2021/05/23 02:40:06;;;;;;;2.88;1.80;;;;;;;;;;1479890;40;20063;-63
2021/05/23 02:41:08;;;;;;;3.88;2.00;;;;;;;;;;1479826;40;20044;-63
2021/05/23 02:42:09;;;;;;;4.13;2.00;;;;;;;;;;1480275;40;20040;-62
2021/05/23 02:43:12;;;;;;;4.28;2.05;;;;;;;;;;1480233;40;20030;-62
2021/05/23 02:44:13;;;;;;;4.20;1.98;;;;;;;;;;1480402;40;20024;-62
2021/05/23 02:45:16;;;;;;;4.68;2.20;;;;;;;;;;1480423;40;20036;-63
2021/05/23 02:46:17;;;;;;;4.05;2.15;;;;;;;;;;1480520;40;20029;-63
2021/05/23 02:47:18;;;;;;;4.35;2.22;;;;;;;;;;1480289;40;20303;-62
2021/05/23 02:48:19;;;;;;;4.80;2.00;;;;;;;;;;1480243;40;20389;-62
2021/05/23 02:49:21;;;;;;;5.10;2.38;;;;;;;;;;1480337;40;20029;-62
2021/05/23 02:50:23;;;;;;;4.57;1.90;;;;;;;;;;1480261;40;20040;-62
2021/05/23 02:51:25;;;;;;;5.00;2.00;;;;;;;;;;1480415;40;20065;-62
2021/05/23 02:52:26;;;;;;;4.53;2.30;;;;;;;;;;1480318;40;20118;-62
2021/05/23 02:53:27;;;;;;;4.63;2.00;;;;;;;;;;1480285;40;20033;-62
2021/05/23 02:54:28;;;;;;;3.63;1.95;;;;;;;;;;1480247;40;20025;-62
2021/05/23 02:55:29;;;;;;;4.32;2.13;;;;;;;;;;1480474;40;20025;-63
2021/05/23 02:56:30;;;;;;;3.60;2.13;;;;;;;;;;1480326;40;20025;-63
2021/05/23 02:57:31;;;;;;;2.63;1.50;;;;;;;;;;1480294;40;20032;-62
2021/05/23 02:58:33;;;;;;;4.18;1.95;;;;;;;;;;1480402;40;20033;-62
2021/05/23 02:59:34;;;;;;;3.47;1.90;;;;;;;;;;1480470;40;20033;-62
2021/05/23 03:00:35;;;;;;;4.20;2.00;;;;;;;;;;1480236;40;20304;-63
2021/05/23 03:01:36;;;;;;;5.47;2.03;;;;;;;;;;1480441;40;20033;-62
2021/05/23 03:02:48;;;;;;;4.78;1.90;;;;;;;;;;1480301;40;20033;-62
2021/05/23 03:03:49;;;;;;;3.05;1.92;;;;;;;;;;1480227;40;20392;-62
2021/05/23 03:04:50;;;;;;;4.25;2.22;;;;;;;;;;1480376;40;20025;-62
2021/05/23 03:05:51;;;;;;;3.40;2.00;;;;;;;;;;1480232;40;20033;-62
2021/05/23 03:06:52;;;;;;;6.45;2.00;;;;;;;;;;1480218;40;20394;-63
2021/05/23 03:07:55;;;;;;;8.05;2.33;;;;;;;;;;1480239;40;20041;-63
2021/05/23 03:08:57;;;;;;;3.85;1.92;;;;;;;;;;1480247;40;20051;-63
2021/05/23 03:09:57;;;;;;;4.82;2.47;;;;;;;;;;1480387;40;20117;-63
2021/05/23 03:10:59;;;;;;;4.43;1.90;;;;;;;;;;1480226;40;20122;-62
2021/05/23 03:12:00;;;;;;;3.85;2.20;;;;;;;;;;1480284;40;20388;-62
2021/05/23 03:13:03;;;;;;;5.18;2.00;;;;;;;;;;1480163;40;20029;-62
2021/05/23 03:14:04;;;;;;;3.20;1.90;;;;;;;;;;1480484;40;20033;-62
2021/05/23 03:15:07;;;;;;;5.05;2.28;;;;;;;;;;1480228;40;20033;-62
2021/05/23 03:16:10;;;;;;;3.33;2.15;;;;;;;;;;1480380;40;20028;-63
2021/05/23 03:17:11;;;;;;;4.55;2.10;;;;;;;;;;1480364;40;20025;-62
2021/05/23 03:18:13;;;;;;;6.25;2.15;;;;;;;;;;1480337;40;20032;-62
2021/05/23 03:19:14;;;;;;;4.78;2.30;;;;;;;;;;1480190;40;20389;-62
2021/05/23 03:20:17;;;;;;;5.88;2.00;;;;;;;;;;1480351;40;20029;-63
2021/05/23 03:21:19;;;;;;;3.95;1.98;;;;;;;;;;1480140;40;20057;-62
2021/05/23 03:22:20;;;;;;;4.32;2.03;;;;;;;;;;1480340;40;20040;-62
2021/05/23 03:23:21;;;;;;;5.00;2.10;;;;;;;;;;1480338;40;20300;-62
2021/05/23 03:24:22;;;;;;;3.28;1.70;;;;;;;;;;1480380;40;20036;-62
2021/05/23 03:25:24;;;;;;;4.53;1.90;;;;;;;;;;1480106;40;20304;-62
2021/05/23 03:26:25;;;;;;;3.63;2.15;;;;;;;;;;1480121;40;20042;-62
2021/05/23 03:27:27;;;;;;;5.00;1.90;;;;;;;;;;1480804;40;20029;-63
2021/05/23 03:28:27;;;;;;;4.85;2.13;;;;;;;;;;1480768;40;20029;-62
2021/05/23 03:29:29;;;;;;;5.70;2.42;;;;;;;;;;1480769;40;20029;-62
2021/05/23 03:30:33;;;;;;;5.22;2.05;;;;;;;;;;1480921;40;20033;-62
2021/05/23 03:31:34;;;;;;;5.28;1.98;;;;;;;;;;1480826;40;20045;-63
2021/05/23 03:32:35;;;;;;;3.42;2.08;;;;;;;;;;1480956;40;20026;-62
2021/05/23 03:33:36;;;;;;;3.08;1.77;;;;;;;;;;1480894;40;20266;-62
2021/05/23 03:34:37;;;;;;;4.53;2.38;;;;;;;;;;1480977;40;20029;-62
2021/05/23 03:35:39;;;;;;;4.47;2.05;;;;;;;;;;1480873;40;20289;-62
2021/05/23 03:36:41;;;;;;;3.50;1.80;;;;;;;;;;1481034;40;20029;-63
2021/05/23 03:37:42;;;;;;;4.78;2.00;;;;;;;;;;1480956;40;20119;-62
2021/05/23 03:38:44;;;;;;;4.85;2.10;;;;;;;;;;1480902;40;20036;-62
2021/05/23 03:39:45;;;;;;;6.38;2.10;;;;;;;;;;1480812;40;20029;-62
2021/05/23 03:40:46;;;;;;;4.28;1.98;;;;;;;;;;1480957;40;20065;-62
2021/05/23 03:41:47;;;;;;;3.70;1.90;;;;;;;;;;1480862;40;20040;-62
2021/05/23 03:42:50;;;;;;;3.67;1.77;;;;;;;;;;1480955;40;20404;-62
2021/05/23 03:43:51;;;;;;;4.25;1.85;;;;;;;;;;1480732;40;20466;-62
2021/05/23 03:44:53;;;;;;;4.72;1.75;;;;;;;;;;1480782;40;20037;-62
2021/05/23 03:45:55;;;;;;;2.50;1.45;;;;;;;;;;1481043;40;20029;-62
2021/05/23 03:46:56;;;;;;;4.03;1.80;;;;;;;;;;1480977;40;20033;-62
2021/05/23 03:47:57;;;;;;;3.97;1.92;;;;;;;;;;1480778;40;20033;-62
2021/05/23 03:48:59;;;;;;;5.05;1.88;;;;;;;;;;1480751;40;20029;-62
2021/05/23 03:50:00;;;;;;;4.78;2.00;;;;;;;;;;1480872;40;20108;-62
2021/05/23 03:51:03;;;;;;;3.67;1.65;;;;;;;;;;1480866;40;20033;-61
2021/05/23 03:52:05;;;;;;;3.88;1.67;;;;;;;;;;1480722;40;20025;-62
2021/05/23 03:53:06;;;;;;;3.45;2.03;;;;;;;;;;1480807;40;20033;-62
2021/05/23 03:54:07;;;;;;;2.97;1.80;;;;;;;;;;1480926;40;20025;-62
2021/05/23 03:55:09;;;;;;;3.92;2.30;;;;;;;;;;1480917;40;20119;-62
2021/05/23 03:56:10;;;;;;;3.67;1.95;;;;;;;;;;1480818;40;20041;-62
2021/05/23 03:57:11;;;;;;;5.30;1.70;;;;;;;;;;1480725;40;20384;-62
2021/05/23 03:58:13;;;;;;;4.30;2.10;;;;;;;;;;1480719;40;20033;-62
2021/05/23 03:59:14;;;;;;;3.60;1.55;;;;;;;;;;1480708;40;20029;-63
2021/05/23 04:00:18;;;;;;;2.88;1.73;;;;;;;;;;1480768;40;20036;-62
2021/05/23 04:01:19;;;;;;;6.03;1.88;;;;;;;;;;1480898;40;20065;-62
2021/05/23 04:02:20;;;;;;;2.45;1.40;;;;;;;;;;1480800;40;20025;-62
2021/05/23 04:03:23;;;;;;;6.05;1.80;;;;;;;;;;1480609;40;20025;-62
2021/05/23 04:04:24;;;;;;;5.78;2.00;;;;;;;;;;1480204;40;20034;-62
2021/05/23 04:05:27;;;;;;;3.53;1.42;;;;;;;;;;1480438;40;20142;-62
2021/05/23 04:06:29;;;;;;;5.85;1.88;;;;;;;;;;1480885;40;20025;-62
2021/05/23 04:07:30;;;;;;;4.35;1.70;;;;;;;;;;1480746;40;20445;-62
2021/05/23 04:08:31;;;;;;;4.65;1.75;;;;;;;;;;1480744;40;20378;-62
2021/05/23 04:09:32;;;;;;;3.65;1.50;;;;;;;;;;1480728;40;20389;-62
2021/05/23 04:10:36;;;;;;;3.95;1.67;;;;;;;;;;1480789;40;20030;-62
2021/05/23 04:11:41;;;;;;;4.03;1.60;;;;;;;;;;1480835;40;20091;-62
2021/05/23 04:12:44;;;;;;;4.53;1.70;;;;;;;;;;1480645;40;20388;-62
2021/05/23 04:13:46;;;;;;;6.90;1.70;;;;;;;;;;1480640;40;20404;-62
2021/05/23 04:14:48;;;;;;;3.45;1.70;;;;;;;;;;1480701;40;20348;-62
2021/05/23 04:15:50;;;;;;;4.93;1.60;;;;;;;;;;1480878;40;20115;-62
2021/05/23 04:16:51;;;;;;;3.22;1.23;;;;;;;;;;1480713;40;20389;-62
2021/05/23 04:17:52;;;;;;;2.92;1.55;;;;;;;;;;1480744;40;20029;-62
2021/05/23 04:18:53;;;;;;;3.30;1.33;;;;;;;;;;1480658;40;20033;-62
2021/05/23 04:19:54;;;;;;;3.10;1.30;;;;;;;;;;1480290;40;20033;-62
2021/05/23 04:20:55;;;;;;;2.53;1.33;;;;;;;;;;1480410;40;20380;-62
2021/05/23 04:21:56;;;;;;;3.40;1.20;;;;;;;;;;1480821;40;20025;-62
2021/05/23 04:22:58;;;;;;;2.22;1.10;;;;;;;;;;1480686;40;20029;-62
2021/05/23 04:23:58;;;;;;;3.15;0.90;;;;;;;;;;1480652;40;20034;-62
2021/05/23 04:25:01;;;;;;;3.17;1.13;;;;;;;;;;1480663;40;20029;-62
2021/05/23 04:26:01;;;;;;;3.13;0.90;;;;;;;;;;1480640;40;20126;-62
2021/05/23 04:27:03;;;;;;;2.67;1.10;;;;;;;;;;1480668;40;20117;-62
2021/05/23 04:28:05;;;;;;;2.30;1.02;;;;;;;;;;1480655;40;20378;-62
2021/05/23 04:29:06;;;;;;;2.08;1.15;;;;;;;;;;1480836;40;20036;-62
2021/05/23 04:30:08;;;;;;;2.80;1.20;;;;;;;;;;1480637;40;20032;-62
2021/05/23 04:31:11;;;;;;;1.58;0.80;;;;;;;;;;1480851;40;20025;-63
2021/05/23 04:32:12;;;;;;;1.83;0.90;;;;;;;;;;1480629;40;20114;-62
2021/05/23 04:33:13;;;;;;;2.25;0.82;;;;;;;;;;1480651;40;20037;-62
2021/05/23 04:34:14;;;;;;;2.35;0.93;;;;;;;;;;1480791;40;20033;-62
2021/05/23 04:35:16;;;;;;;4.32;1.10;;;;;;;;;;1480676;40;20085;-62
2021/05/23 04:36:17;;;;;;;1.85;0.98;;;;;;;;;;1480638;40;20415;-62
2021/05/23 04:37:18;;;;;;;1.75;0.80;;;;;;;;;;1480835;40;20033;-62
2021/05/23 04:38:19;;;;;;;2.65;1.02;;;;;;;;;;1480424;40;20029;-62
2021/05/23 04:39:20;;;;;;;1.73;0.90;;;;;;;;;;1480608;40;20111;-62
2021/05/23 04:40:21;;;;;;;1.65;0.93;;;;;;;;;;1480655;40;20026;-62
2021/05/23 04:41:23;;;;;;;2.30;1.02;;;;;;;;;;1480800;40;20033;-62
2021/05/23 04:42:24;;;;;;;2.03;0.93;;;;;;;;;;1480609;40;20036;-62
2021/05/23 04:43:25;;;;;;;2.92;0.90;;;;;;;;;;1480607;40;20129;-62
2021/05/23 04:44:26;;;;;;;2.22;0.80;;;;;;;;;;1480615;40;20033;-62
2021/05/23 04:45:27;;;;;;;1.75;1.10;;;;;;;;;;1480775;40;20106;-62
2021/05/23 04:46:29;;;;;;;1.63;0.80;;;;;;;;;;1480635;40;20370;-62
2021/05/23 04:47:30;;;;;;;2.05;0.70;;;;;;;;;;1480629;40;20060;-62
2021/05/23 04:48:31;;;;;;;1.38;0.77;;;;;;;;;;1480186;40;20036;-62
2021/05/23 04:49:38;;;;;;;2.55;0.88;;;;;;;;;;1480128;40;20332;-62
2021/05/23 04:50:40;;;;;;;1.65;0.90;;;;;;;;;;1480674;40;20384;-62
2021/05/23 04:51:40;;;;;;;2.58;0.70;;;;;;;;;;1480581;40;20049;-62
2021/05/23 04:52:42;;;;;;;2.63;0.95;;;;;;;;;;1480601;40;20036;-62
2021/05/23 04:53:43;;;;;;;2.33;0.80;;;;;;;;;;1480731;40;20040;-62
2021/05/23 04:54:44;;;;;;;1.50;0.85;;;;;;;;;;1480790;40;20056;-62
2021/05/23 04:55:45;;;;;;;2.67;0.73;;;;;;;;;;1480599;40;20051;-62
2021/05/23 04:56:46;;;;;;;2.72;0.93;;;;;;;;;;1480748;40;20032;-62
2021/05/23 04:57:48;;;;;;;1.63;0.80;;;;;;;;;;1480602;40;20296;-62
2021/05/23 04:58:49;;;;;;;2.28;0.77;;;;;;;;;;1480766;40;20042;-62
2021/05/23 04:59:52;;;;;;;2.15;0.90;;;;;;;;;;1480537;40;20043;-62
2021/05/23 05:00:53;;;;;;;2.67;0.98;;;;;;;;;;1480786;40;20037;-62
2021/05/23 05:01:55;;;;;;;1.60;0.80;;;;;;;;;;1480725;40;20052;-62
2021/05/23 05:02:56;;;;;;;2.08;0.70;;;;;;;;;;1480779;40;20029;-62
2021/05/23 05:03:57;;;;;;;2.35;0.73;;;;;;;;;;1480710;40;20115;-62
2021/05/23 05:04:58;;;;;;;1.88;0.60;;;;;;;;;;1480749;40;20382;-62
2021/05/23 05:05:59;;;;;;;0.98;0.60;;;;;;;;;;1480559;40;20397;-62
2021/05/23 05:07:00;;;;;;;1.23;0.70;;;;;;;;;;1480634;40;20021;-61
2021/05/23 05:08:01;;;;;;;1.88;0.90;;;;;;;;;;1480740;40;20029;-62
2021/05/23 05:09:03;;;;;;;1.88;0.77;;;;;;;;;;1480583;40;20301;-62
2021/05/23 05:10:05;;;;;;;1.75;0.90;;;;;;;;;;1480177;40;20110;-62
2021/05/23 05:11:07;;;;;;;1.33;0.70;;;;;;;;;;1476058;40;20070;-62
2021/05/23 05:12:09;;;;;;;2.20;0.68;;;;;;;;;;1480249;40;20045;-62
2021/05/23 05:13:10;;;;;;;2.15;0.70;;;;;;;;;;1480704;40;20036;-62
2021/05/23 05:14:12;;;;;;;2.28;1.00;;;;;;;;;;1480714;40;20025;-62
2021/05/23 05:15:14;;;;;;;1.27;0.70;;;;;;;;;;1480697;40;20107;-62
2021/05/23 05:16:15;;;;;;;1.95;0.80;;;;;;;;;;1480506;40;20025;-62
2021/05/23 05:17:17;;;;;;;2.35;0.60;;;;;;;;;;1480541;40;20036;-62
2021/05/23 05:18:18;;;;;;;1.20;0.70;;;;;;;;;;1480570;40;20025;-62
2021/05/23 05:19:19;;;;;;;1.83;0.75;;;;;;;;;;1480521;40;20040;-62
2021/05/23 05:20:21;;;;;;;1.98;0.60;;;;;;;;;;1480518;40;20488;-62
2021/05/23 05:21:22;;;;;;;2.30;0.65;;;;;;;;;;1480530;40;20037;-62
2021/05/23 05:22:23;;;;;;;1.55;0.50;;;;;;;;;;1480713;40;20025;-62
2021/05/23 05:23:24;;;;;;;1.33;0.80;;;;;;;;;;1480655;40;20374;-62
2021/05/23 05:24:25;;;;;;;2.28;0.70;;;;;;;;;;1480535;40;20118;-62
2021/05/23 05:25:26;;;;;;;2.35;0.55;;;;;;;;;;1480659;40;20123;-62
2021/05/23 05:26:28;;;;;;;0.95;0.68;;;;;;;;;;1480576;40;20073;-62
2021/05/23 05:27:29;;;;;;;1.00;0.70;;;;;;;;;;1480550;40;20048;-62
2021/05/23 05:28:30;;;;;;;1.23;0.60;;;;;;;;;;1480689;40;20041;-62
2021/05/23 05:29:31;;;;;;;2.78;0.80;;;;;;;;;;1480596;40;20033;-62
2021/05/23 05:30:32;;;;;;;2.17;0.55;;;;;;;;;;1480563;40;20037;-62
2021/05/23 05:31:34;;;;;;;2.17;0.65;;;;;;;;;;1480549;40;20057;-62
2021/05/23 05:32:36;;;;;;;0.68;0.50;;;;;;;;;;1480519;40;20308;-62
2021/05/23 05:33:37;;;;;;;2.40;0.80;;;;;;;;;;1480701;40;20033;-62
2021/05/23 05:34:38;;;;;;;2.70;0.60;;;;;;;;;;1480603;40;20393;-62
2021/05/23 05:35:40;;;;;;;2.70;0.70;;;;;;;;;;1480573;40;20111;-62
2021/05/23 05:36:41;;;;;;;1.60;0.70;;;;;;;;;;1480497;40;20282;-62
2021/05/23 05:37:42;;;;;;;2.00;0.60;;;;;;;;;;1480725;40;20033;-62
2021/05/23 05:38:43;;;;;;;0.95;0.70;;;;;;;;;;1480480;40;20111;-62
2021/05/23 05:39:44;;;;;;;2.35;0.93;;;;;;;;;;1480652;40;20042;-62
2021/05/23 05:40:45;;;;;;;1.55;0.80;;;;;;;;;;1480725;40;20029;-62
2021/05/23 05:41:47;;;;;;;0.90;0.60;;;;;;;;;;1480377;40;20040;-62
2021/05/23 05:42:47;;;;;;;0.60;0.52;;;;;;;;;;1480741;40;20069;-62
2021/05/23 05:43:50;;;;;;;1.45;0.65;;;;;;;;;;1480625;40;20091;-62
2021/05/23 05:44:51;;;;;;;1.50;0.70;;;;;;;;;;1480413;40;20399;-62
2021/05/23 05:45:52;;;;;;;2.08;0.73;;;;;;;;;;1480516;40;20037;-62
2021/05/23 05:46:53;;;;;;;1.15;0.60;;;;;;;;;;1480670;40;20025;-62
2021/05/23 05:47:55;;;;;;;0.95;0.50;;;;;;;;;;1480657;40;20065;-62
2021/05/23 05:48:56;;;;;;;1.38;0.65;;;;;;;;;;1480495;40;20028;-62
2021/05/23 05:49:57;;;;;;;1.30;0.68;;;;;;;;;;1480047;40;20036;-62
2021/05/23 05:51:00;;;;;;;1.20;0.68;;;;;;;;;;1480743;40;20052;-62
2021/05/23 05:52:02;;;;;;;1.77;0.60;;;;;;;;;;1480581;40;20110;-62
2021/05/23 05:53:02;;;;;;;1.05;0.77;;;;;;;;;;1480430;40;20033;-62
2021/05/23 05:54:04;;;;;;;1.90;0.60;;;;;;;;;;1480747;40;20025;-62
2021/05/23 05:55:06;;;;;;;0.90;0.50;;;;;;;;;;1480454;40;20040;-62
2021/05/23 05:56:08;;;;;;;1.58;0.60;;;;;;;;;;1480661;40;20041;-61
2021/05/23 05:57:09;;;;;;;0.90;0.50;;;;;;;;;;1480633;40;20036;-62
2021/05/23 05:58:10;;;;;;;1.00;0.60;;;;;;;;;;1480613;40;20040;-62
2021/05/23 05:59:11;;;;;;;1.88;0.70;;;;;;;;;;1480646;40;20029;-62
2021/05/23 06:00:14;;;;;;;1.08;0.40;;;;;;;;;;1480426;40;20110;-62
2021/05/23 06:01:15;;;;;;;2.03;0.60;;;;;;;;;;1480442;40;20034;-62
2021/05/23 06:02:17;;;;;;;0.57;0.40;;;;;;;;;;1480474;40;20029;-62
2021/05/23 06:03:19;;;;;;;1.90;0.70;;;;;;;;;;1480391;40;20032;-62
2021/05/23 06:04:20;;;;;;;1.50;0.50;;;;;;;;;;1480491;40;20044;-62
2021/05/23 06:05:21;;;;;;;0.80;0.50;;;;;;;;;;1480605;40;20115;-62
2021/05/23 06:06:23;;;;;;;1.48;0.50;;;;;;;;;;1480556;40;20037;-62
2021/05/23 06:07:24;;;;;;;0.47;0.40;;;;;;;;;;1480621;40;20033;-62
2021/05/23 06:08:25;;;;;;;0.50;0.40;;;;;;;;;;1480448;40;20404;-62
2021/05/23 06:09:26;;;;;;;1.92;0.60;;;;;;;;;;1480580;40;20029;-62
2021/05/23 06:10:27;;;;;;;0.80;0.50;;;;;;;;;;1480398;40;20083;-62
2021/05/23 06:11:29;;;;;;;1.80;0.57;;;;;;;;;;1480520;40;20033;-62
2021/05/23 06:12:29;;;;;;;0.57;0.40;;;;;;;;;;1480436;40;20304;-62
2021/05/23 06:13:31;;;;;;;0.65;0.40;;;;;;;;;;1480625;40;20036;-62
2021/05/23 06:14:32;;;;;;;0.40;0.40;;;;;;;;;;1480476;40;20380;-62